createdAt,value
2023-01-01T00:00:27.891Z,0.00
2023-01-01T00:01:27.805Z,0.00
2023-01-01T00:02:33.276Z,0.00
2023-01-01T00:03:28.889Z,0.00
2023-01-01T00:04:27.776Z,0.00
2023-01-01T00:05:27.748Z,0.00
2023-01-01T00:06:27.746Z,0.00
2023-01-01T00:07:27.718Z,0.00
2023-01-01T00:08:27.716Z,0.00
2023-01-01T00:09:27.710Z,0.00
2023-01-01T00:10:27.691Z,0.00
2023-01-01T00:11:27.682Z,0.00
2023-01-01T00:12:27.659Z,0.00
2023-01-01T00:13:27.650Z,0.00
2023-01-01T00:14:27.890Z,0.00
2023-01-01T00:15:27.619Z,0.00
2023-01-01T00:16:27.683Z,0.00
2023-01-01T00:17:27.615Z,0.00
2023-01-01T00:18:27.591Z,0.00
2023-01-01T00:19:27.604Z,0.00
2023-01-01T00:20:33.153Z,0.00
2023-01-01T00:21:28.567Z,0.00
2023-01-01T00:22:53.183Z,0.00
2023-01-01T00:23:28.537Z,0.00
2023-01-01T00:24:27.556Z,0.00
2023-01-01T00:25:27.562Z,0.00
2023-01-01T00:26:32.801Z,0.00
2023-01-01T00:27:28.505Z,0.00
2023-01-01T00:28:27.449Z,0.00
2023-01-01T00:29:27.440Z,0.00
2023-01-01T00:30:27.435Z,0.00
2023-01-01T00:31:27.471Z,0.00
2023-01-01T00:32:27.447Z,0.00
2023-01-01T00:33:27.378Z,0.00
2023-01-01T00:34:27.362Z,0.00
2023-01-01T00:35:27.480Z,0.00
2023-01-01T00:36:27.346Z,0.00
2023-01-01T00:37:27.335Z,0.00
2023-01-01T00:38:27.314Z,0.00
2023-01-01T00:39:27.303Z,0.00
2023-01-01T00:40:27.291Z,0.00
2023-01-01T00:41:27.278Z,0.00
2023-01-01T00:42:27.267Z,0.00
2023-01-01T00:43:27.266Z,0.00
2023-01-01T00:44:27.241Z,0.00
2023-01-01T00:45:27.217Z,0.00
2023-01-01T00:46:27.294Z,0.00
2023-01-01T00:47:27.191Z,0.00
2023-01-01T00:48:27.186Z,0.00
2023-01-01T00:49:27.166Z,0.00
2023-01-01T00:50:27.157Z,0.00
2023-01-01T00:51:30.509Z,0.00
2023-01-01T00:52:28.148Z,0.00
2023-01-01T00:53:27.112Z,0.00
2023-01-01T00:54:27.101Z,0.00
2023-01-01T00:55:27.088Z,0.00
2023-01-01T00:56:27.077Z,0.00
2023-01-01T00:57:27.067Z,0.00
2023-01-01T00:58:27.078Z,0.00
2023-01-01T00:59:29.138Z,0.00
2023-01-01T01:00:27.025Z,0.00
2023-01-01T01:01:27.136Z,0.00
2023-01-01T01:02:27.252Z,0.00
2023-01-01T01:03:26.979Z,0.00
2023-01-01T01:04:26.971Z,0.00
2023-01-01T01:05:26.952Z,0.00
2023-01-01T01:06:26.946Z,0.00
2023-01-01T01:07:26.954Z,0.00
2023-01-01T01:08:30.643Z,0.00
2023-01-01T01:09:26.901Z,0.00
2023-01-01T01:10:26.889Z,0.00
2023-01-01T01:11:26.886Z,0.00
2023-01-01T01:12:26.863Z,0.00
2023-01-01T01:13:26.851Z,0.00
2023-01-01T01:14:26.838Z,0.00
2023-01-01T01:15:26.836Z,0.00
2023-01-01T01:16:26.876Z,0.00
2023-01-01T01:17:26.791Z,0.00
2023-01-01T01:18:26.809Z,0.00
2023-01-01T01:19:26.965Z,0.00
2023-01-01T01:20:26.755Z,0.00
2023-01-01T01:21:26.747Z,0.00
2023-01-01T01:22:29.040Z,0.00
2023-01-01T01:23:26.744Z,0.00
2023-01-01T01:24:26.709Z,0.00
2023-01-01T01:25:26.696Z,0.00
2023-01-01T01:26:26.680Z,0.00
2023-01-01T01:27:26.661Z,0.00
2023-01-01T01:28:26.648Z,0.00
2023-01-01T01:29:26.639Z,0.00
2023-01-01T01:30:26.678Z,0.00
2023-01-01T01:31:26.634Z,0.00
2023-01-01T01:32:26.599Z,0.00
2023-01-01T01:33:26.579Z,0.00
2023-01-01T01:34:28.376Z,0.00
2023-01-01T01:35:26.553Z,0.00
2023-01-01T01:36:26.553Z,0.00
2023-01-01T01:37:26.545Z,0.00
2023-01-01T01:38:26.523Z,0.00
2023-01-01T01:39:26.531Z,0.00
2023-01-01T01:40:26.492Z,0.00
2023-01-01T01:41:28.234Z,0.00
2023-01-01T01:42:26.467Z,0.00
2023-01-01T01:43:26.455Z,0.00
2023-01-01T01:44:26.438Z,0.00
2023-01-01T01:45:33.004Z,0.00
2023-01-01T01:46:27.497Z,0.00
2023-01-01T01:47:26.406Z,0.00
2023-01-01T01:48:26.384Z,0.00
2023-01-01T01:49:26.379Z,0.00
2023-01-01T01:50:26.351Z,0.00
2023-01-01T01:51:26.343Z,0.00
2023-01-01T01:52:26.342Z,0.00
2023-01-01T01:53:26.316Z,0.00
2023-01-01T01:54:26.306Z,0.00
2023-01-01T01:55:26.328Z,0.00
2023-01-01T01:56:26.283Z,0.00
2023-01-01T01:57:26.263Z,0.00
2023-01-01T01:58:26.255Z,0.00
2023-01-01T01:59:26.253Z,0.00
2023-01-01T02:00:26.238Z,0.00
2023-01-01T02:01:26.347Z,0.00
2023-01-01T02:02:26.465Z,0.00
2023-01-01T02:03:26.203Z,0.00
2023-01-01T02:04:26.246Z,0.00
2023-01-01T02:05:26.178Z,0.00
2023-01-01T02:06:26.146Z,0.00
2023-01-01T02:07:26.140Z,0.00
2023-01-01T02:08:26.136Z,0.00
2023-01-01T02:09:26.111Z,0.00
2023-01-01T02:10:26.090Z,0.00
2023-01-01T02:11:26.101Z,0.00
2023-01-01T02:12:26.069Z,0.00
2023-01-01T02:13:26.052Z,0.00
2023-01-01T02:14:26.041Z,0.00
2023-01-01T02:15:26.023Z,0.00
2023-01-01T02:16:26.009Z,0.00
2023-01-01T02:17:25.994Z,0.00
2023-01-01T02:18:26.010Z,0.00
2023-01-01T02:19:25.973Z,0.00
2023-01-01T02:20:25.968Z,0.00
2023-01-01T02:21:25.955Z,0.00
2023-01-01T02:22:25.934Z,0.00
2023-01-01T02:23:25.923Z,0.00
2023-01-01T02:24:26.263Z,0.00
2023-01-01T02:25:25.883Z,0.00
2023-01-01T02:26:25.886Z,0.00
2023-01-01T02:27:25.883Z,0.00
2023-01-01T02:28:25.847Z,0.00
2023-01-01T02:29:25.843Z,0.00
2023-01-01T02:30:25.828Z,0.00
2023-01-01T02:31:25.884Z,0.00
2023-01-01T02:32:25.803Z,0.00
2023-01-01T02:33:25.777Z,0.00
2023-01-01T02:34:25.773Z,0.00
2023-01-01T02:35:25.760Z,0.00
2023-01-01T02:36:25.748Z,0.00
2023-01-01T02:37:25.724Z,0.00
2023-01-01T02:38:25.714Z,0.00
2023-01-01T02:39:25.703Z,0.00
2023-01-01T02:40:25.694Z,0.00
2023-01-01T02:41:25.680Z,0.00
2023-01-01T02:42:25.664Z,0.00
2023-01-01T02:43:25.825Z,0.00
2023-01-01T02:44:25.639Z,0.00
2023-01-01T02:45:25.620Z,0.00
2023-01-01T02:46:25.605Z,0.00
2023-01-01T02:47:25.591Z,0.00
2023-01-01T02:48:25.579Z,0.00
2023-01-01T02:49:25.566Z,0.00
2023-01-01T02:50:25.551Z,0.00
2023-01-01T02:51:25.544Z,0.00
2023-01-01T02:52:25.525Z,0.00
2023-01-01T02:53:25.514Z,0.00
2023-01-01T02:54:25.599Z,0.00
2023-01-01T02:55:25.491Z,0.00
2023-01-01T02:56:25.473Z,0.00
2023-01-01T02:57:25.460Z,0.00
2023-01-01T02:58:25.452Z,0.00
2023-01-01T02:59:25.464Z,0.00
2023-01-01T03:00:25.420Z,0.00
2023-01-01T03:01:25.525Z,0.00
2023-01-01T03:02:25.506Z,0.00
2023-01-01T03:03:25.456Z,0.00
2023-01-01T03:04:25.365Z,0.00
2023-01-01T03:05:25.352Z,0.00
2023-01-01T03:06:25.348Z,0.00
2023-01-01T03:07:25.325Z,0.00
2023-01-01T03:08:25.314Z,0.00
2023-01-01T03:09:25.341Z,0.00
2023-01-01T03:10:25.295Z,0.00
2023-01-01T03:11:25.275Z,0.00
2023-01-01T03:12:25.271Z,0.00
2023-01-01T03:13:25.248Z,0.00
2023-01-01T03:14:25.233Z,0.00
2023-01-01T03:15:25.242Z,0.00
2023-01-01T03:16:25.208Z,0.00
2023-01-01T03:17:25.195Z,0.00
2023-01-01T03:18:25.183Z,0.00
2023-01-01T03:19:25.167Z,0.00
2023-01-01T03:20:25.157Z,0.00
2023-01-01T03:21:25.139Z,0.00
2023-01-01T03:22:25.137Z,0.00
2023-01-01T03:23:25.120Z,0.00
2023-01-01T03:24:25.112Z,0.00
2023-01-01T03:25:25.101Z,0.00
2023-01-01T03:26:25.073Z,0.00
2023-01-01T03:27:25.065Z,0.00
2023-01-01T03:28:25.042Z,0.00
2023-01-01T03:29:25.029Z,0.00
2023-01-01T03:30:25.019Z,0.00
2023-01-01T03:31:25.079Z,0.00
2023-01-01T03:32:24.996Z,0.00
2023-01-01T03:33:24.982Z,0.00
2023-01-01T03:34:24.964Z,0.00
2023-01-01T03:35:24.952Z,0.00
2023-01-01T03:36:24.940Z,0.00
2023-01-01T03:37:24.920Z,0.00
2023-01-01T03:38:24.910Z,0.00
2023-01-01T03:39:24.905Z,0.00
2023-01-01T03:40:24.883Z,0.00
2023-01-01T03:41:24.875Z,0.00
2023-01-01T03:42:24.863Z,0.00
2023-01-01T03:43:24.854Z,0.00
2023-01-01T03:44:24.842Z,0.00
2023-01-01T03:45:24.834Z,0.00
2023-01-01T03:46:24.859Z,0.00
2023-01-01T03:47:24.818Z,0.00
2023-01-01T03:48:24.780Z,0.00
2023-01-01T03:49:25.178Z,0.00
2023-01-01T03:50:24.766Z,0.00
2023-01-01T03:51:24.745Z,0.00
2023-01-01T03:52:24.728Z,0.00
2023-01-01T03:53:24.713Z,0.00
2023-01-01T03:54:24.709Z,0.00
2023-01-01T03:55:24.680Z,0.00
2023-01-01T03:56:24.676Z,0.00
2023-01-01T03:57:24.678Z,0.00
2023-01-01T03:58:24.653Z,0.00
2023-01-01T03:59:24.634Z,0.00
2023-01-01T04:00:24.624Z,0.00
2023-01-01T04:01:24.800Z,0.00
2023-01-01T04:02:24.614Z,0.00
2023-01-01T04:03:24.691Z,0.00
2023-01-01T04:04:24.564Z,0.00
2023-01-01T04:05:24.566Z,0.00
2023-01-01T04:06:24.546Z,0.00
2023-01-01T04:07:24.534Z,0.00
2023-01-01T04:08:24.518Z,0.00
2023-01-01T04:09:24.500Z,0.00
2023-01-01T04:10:24.495Z,0.00
2023-01-01T04:11:24.483Z,0.00
2023-01-01T04:12:24.463Z,0.00
2023-01-01T04:13:24.443Z,0.00
2023-01-01T04:14:24.429Z,0.00
2023-01-01T04:15:24.419Z,0.00
2023-01-01T04:16:24.452Z,0.00
2023-01-01T04:17:24.395Z,0.00
2023-01-01T04:18:24.376Z,0.00
2023-01-01T04:19:24.388Z,0.00
2023-01-01T04:20:24.349Z,0.00
2023-01-01T04:21:24.345Z,0.00
2023-01-01T04:22:24.339Z,0.00
2023-01-01T04:23:24.320Z,0.00
2023-01-01T04:24:24.331Z,0.00
2023-01-01T04:25:24.293Z,0.00
2023-01-01T04:26:24.277Z,0.00
2023-01-01T04:27:24.281Z,0.00
2023-01-01T04:28:24.262Z,0.00
2023-01-01T04:29:24.233Z,0.00
2023-01-01T04:30:24.220Z,0.00
2023-01-01T04:31:24.209Z,0.00
2023-01-01T04:32:24.198Z,0.00
2023-01-01T04:33:24.182Z,0.00
2023-01-01T04:34:24.171Z,0.00
2023-01-01T04:35:24.191Z,0.00
2023-01-01T04:36:24.143Z,0.00
2023-01-01T04:37:24.134Z,0.00
2023-01-01T04:38:24.112Z,0.00
2023-01-01T04:39:24.105Z,0.00
2023-01-01T04:40:24.101Z,0.00
2023-01-01T04:41:24.091Z,0.00
2023-01-01T04:42:24.066Z,0.00
2023-01-01T04:43:24.054Z,0.00
2023-01-01T04:44:24.041Z,0.00
2023-01-01T04:45:24.109Z,0.00
2023-01-01T04:46:24.022Z,0.00
2023-01-01T04:47:24.005Z,0.00
2023-01-01T04:48:23.981Z,0.00
2023-01-01T04:49:23.975Z,0.00
2023-01-01T04:50:23.960Z,0.00
2023-01-01T04:51:23.963Z,0.00
2023-01-01T04:52:23.936Z,0.00
2023-01-01T04:53:23.913Z,0.00
2023-01-01T04:54:23.909Z,0.00
2023-01-01T04:55:23.885Z,0.00
2023-01-01T04:56:23.874Z,0.00
2023-01-01T04:57:23.860Z,0.00
2023-01-01T04:58:23.845Z,0.00
2023-01-01T04:59:23.880Z,0.00
2023-01-01T05:00:23.817Z,0.00
2023-01-01T05:01:23.967Z,0.00
2023-01-01T05:02:23.961Z,0.00
2023-01-01T05:03:23.783Z,0.00
2023-01-01T05:04:23.766Z,0.00
2023-01-01T05:05:23.760Z,0.00
2023-01-01T05:06:23.751Z,0.00
2023-01-01T05:07:23.766Z,0.00
2023-01-01T05:08:23.716Z,0.00
2023-01-01T05:09:23.704Z,0.00
2023-01-01T05:10:23.689Z,0.00
2023-01-01T05:11:23.679Z,0.00
2023-01-01T05:12:23.655Z,0.00
2023-01-01T05:13:23.646Z,0.00
2023-01-01T05:14:23.645Z,0.00
2023-01-01T05:15:23.617Z,0.00
2023-01-01T05:16:23.660Z,0.00
2023-01-01T05:17:23.600Z,0.00
2023-01-01T05:18:23.579Z,0.00
2023-01-01T05:19:23.570Z,0.00
2023-01-01T05:20:23.553Z,0.00
2023-01-01T05:21:23.539Z,0.00
2023-01-01T05:22:23.534Z,0.00
2023-01-01T05:23:23.536Z,0.00
2023-01-01T05:24:23.504Z,0.00
2023-01-01T05:25:23.486Z,0.00
2023-01-01T05:26:23.479Z,0.00
2023-01-01T05:27:23.464Z,0.00
2023-01-01T05:28:23.455Z,0.00
2023-01-01T05:29:23.435Z,0.00
2023-01-01T05:30:23.422Z,0.00
2023-01-01T05:31:23.520Z,0.00
2023-01-01T05:32:23.395Z,0.00
2023-01-01T05:33:23.373Z,0.00
2023-01-01T05:34:23.371Z,0.00
2023-01-01T05:35:26.505Z,0.00
2023-01-01T05:36:23.331Z,0.00
2023-01-01T05:37:23.323Z,0.00
2023-01-01T05:38:23.305Z,0.00
2023-01-01T05:39:23.325Z,0.00
2023-01-01T05:40:23.285Z,0.00
2023-01-01T05:41:23.282Z,0.00
2023-01-01T05:42:23.261Z,0.00
2023-01-01T05:43:23.246Z,0.00
2023-01-01T05:44:23.234Z,0.00
2023-01-01T05:45:23.225Z,0.00
2023-01-01T05:46:23.207Z,0.00
2023-01-01T05:47:23.199Z,0.00
2023-01-01T05:48:23.207Z,0.00
2023-01-01T05:49:23.165Z,0.00
2023-01-01T05:50:23.149Z,0.00
2023-01-01T05:51:23.137Z,0.00
2023-01-01T05:52:26.692Z,0.00
2023-01-01T05:53:23.129Z,0.00
2023-01-01T05:54:23.113Z,0.00
2023-01-01T05:55:23.112Z,0.00
2023-01-01T05:56:23.083Z,0.00
2023-01-01T05:57:23.066Z,0.00
2023-01-01T05:58:23.046Z,0.00
2023-01-01T05:59:23.032Z,0.00
2023-01-01T06:00:23.015Z,0.00
2023-01-01T06:01:23.082Z,0.00
2023-01-01T06:02:23.051Z,0.00
2023-01-01T06:03:22.981Z,0.00
2023-01-01T06:04:23.045Z,0.00
2023-01-01T06:05:22.967Z,0.00
2023-01-01T06:06:22.947Z,0.00
2023-01-01T06:07:22.933Z,0.00
2023-01-01T06:08:22.918Z,0.00
2023-01-01T06:09:22.903Z,0.00
2023-01-01T06:10:22.906Z,0.00
2023-01-01T06:11:22.906Z,0.00
2023-01-01T06:12:22.863Z,0.00
2023-01-01T06:13:22.846Z,0.00
2023-01-01T06:14:22.841Z,0.00
2023-01-01T06:15:22.827Z,0.00
2023-01-01T06:16:22.861Z,0.00
2023-01-01T06:17:22.797Z,0.00
2023-01-01T06:18:22.783Z,0.00
2023-01-01T06:19:22.764Z,0.00
2023-01-01T06:20:22.754Z,0.00
2023-01-01T06:21:22.748Z,0.00
2023-01-01T06:22:22.734Z,0.00
2023-01-01T06:23:22.721Z,0.00
2023-01-01T06:24:22.716Z,0.00
2023-01-01T06:25:22.696Z,0.00
2023-01-01T06:26:22.697Z,0.00
2023-01-01T06:27:22.711Z,0.00
2023-01-01T06:28:22.654Z,0.00
2023-01-01T06:29:22.655Z,0.00
2023-01-01T06:30:22.620Z,0.00
2023-01-01T06:31:22.730Z,0.00
2023-01-01T06:32:22.598Z,0.00
2023-01-01T06:33:22.587Z,0.00
2023-01-01T06:34:22.571Z,0.00
2023-01-01T06:35:22.555Z,0.00
2023-01-01T06:36:22.596Z,0.00
2023-01-01T06:37:22.555Z,0.00
2023-01-01T06:38:22.522Z,0.00
2023-01-01T06:39:22.546Z,0.00
2023-01-01T06:40:22.482Z,0.00
2023-01-01T06:41:22.470Z,4.00
2023-01-01T06:42:22.458Z,4.00
2023-01-01T06:43:22.479Z,0.00
2023-01-01T06:44:22.434Z,4.00
2023-01-01T06:45:22.417Z,4.00
2023-01-01T06:46:22.475Z,4.00
2023-01-01T06:47:22.394Z,4.00
2023-01-01T06:48:22.382Z,4.00
2023-01-01T06:49:22.374Z,4.00
2023-01-01T06:50:22.360Z,8.00
2023-01-01T06:51:22.347Z,8.00
2023-01-01T06:52:22.326Z,8.00
2023-01-01T06:53:22.320Z,8.00
2023-01-01T06:54:22.300Z,12.00
2023-01-01T06:55:22.309Z,12.00
2023-01-01T06:56:22.269Z,16.00
2023-01-01T06:57:22.256Z,20.00
2023-01-01T06:58:22.261Z,24.00
2023-01-01T06:59:22.258Z,24.00
2023-01-01T07:00:22.208Z,32.00
2023-01-01T07:01:22.346Z,36.00
2023-01-01T07:02:22.386Z,40.00
2023-01-01T07:03:22.260Z,48.00
2023-01-01T07:04:22.169Z,52.00
2023-01-01T07:05:22.149Z,56.00
2023-01-01T07:06:22.131Z,64.00
2023-01-01T07:07:22.131Z,76.00
2023-01-01T07:08:22.109Z,80.00
2023-01-01T07:09:22.091Z,92.00
2023-01-01T07:10:22.075Z,96.00
2023-01-01T07:11:22.077Z,108.00
2023-01-01T07:12:22.055Z,120.00
2023-01-01T07:13:22.042Z,132.00
2023-01-01T07:14:22.032Z,144.00
2023-01-01T07:15:22.036Z,160.00
2023-01-01T07:16:22.032Z,176.00
2023-01-01T07:17:22.001Z,196.00
2023-01-01T07:18:21.974Z,216.00
2023-01-01T07:19:21.968Z,236.00
2023-01-01T07:20:21.950Z,256.00
2023-01-01T07:21:28.264Z,280.00
2023-01-01T07:22:22.938Z,300.00
2023-01-01T07:23:21.903Z,328.00
2023-01-01T07:24:21.895Z,356.00
2023-01-01T07:25:21.880Z,384.00
2023-01-01T07:26:21.864Z,412.00
2023-01-01T07:27:21.853Z,444.00
2023-01-01T07:28:21.834Z,472.00
2023-01-01T07:29:21.825Z,504.00
2023-01-01T07:30:21.811Z,532.00
2023-01-01T07:31:21.860Z,564.00
2023-01-01T07:32:21.787Z,592.00
2023-01-01T07:33:21.767Z,620.00
2023-01-01T07:34:21.751Z,652.00
2023-01-01T07:35:21.743Z,672.00
2023-01-01T07:36:21.734Z,696.00
2023-01-01T07:37:21.717Z,720.00
2023-01-01T07:38:21.703Z,744.00
2023-01-01T07:39:21.701Z,760.00
2023-01-01T07:40:21.683Z,780.00
2023-01-01T07:41:21.674Z,796.00
2023-01-01T07:42:21.661Z,808.00
2023-01-01T07:43:21.637Z,828.00
2023-01-01T07:44:21.620Z,840.00
2023-01-01T07:45:21.623Z,852.00
2023-01-01T07:46:21.651Z,860.00
2023-01-01T07:47:21.607Z,876.00
2023-01-01T07:48:21.579Z,880.00
2023-01-01T07:49:21.551Z,888.00
2023-01-01T07:50:21.537Z,900.00
2023-01-01T07:51:21.566Z,920.00
2023-01-01T07:52:21.546Z,940.00
2023-01-01T07:53:21.509Z,952.00
2023-01-01T07:54:21.536Z,976.00
2023-01-01T07:55:21.476Z,996.00
2023-01-01T07:56:21.464Z,1012.00
2023-01-01T07:57:21.452Z,1020.00
2023-01-01T07:58:21.437Z,1032.00
2023-01-01T07:59:21.421Z,1048.00
2023-01-01T08:00:21.414Z,1060.00
2023-01-01T08:01:21.544Z,1080.00
2023-01-01T08:02:21.645Z,1108.00
2023-01-01T08:03:21.491Z,1136.00
2023-01-01T08:04:21.366Z,1164.00
2023-01-01T08:05:26.611Z,1188.00
2023-01-01T08:06:21.330Z,1220.00
2023-01-01T08:07:21.322Z,1248.00
2023-01-01T08:08:21.315Z,1280.00
2023-01-01T08:09:21.292Z,1316.00
2023-01-01T08:10:21.278Z,1364.00
2023-01-01T08:11:21.260Z,1420.00
2023-01-01T08:12:21.256Z,1476.00
2023-01-01T08:13:21.237Z,1532.00
2023-01-01T08:14:21.222Z,1596.00
2023-01-01T08:15:21.210Z,1656.00
2023-01-01T08:16:21.236Z,1680.00
2023-01-01T08:17:21.190Z,1764.00
2023-01-01T08:18:21.164Z,1836.00
2023-01-01T08:19:21.181Z,1888.00
2023-01-01T08:20:21.143Z,1880.00
2023-01-01T08:21:21.136Z,1872.00
2023-01-01T08:22:21.117Z,1884.00
2023-01-01T08:23:21.122Z,1900.00
2023-01-01T08:24:21.092Z,1896.00
2023-01-01T08:25:21.079Z,1940.00
2023-01-01T08:26:21.060Z,1888.00
2023-01-01T08:27:21.056Z,1860.00
2023-01-01T08:28:21.037Z,1852.00
2023-01-01T08:29:21.020Z,1844.00
2023-01-01T08:30:21.009Z,1856.00
2023-01-01T08:31:21.009Z,1880.00
2023-01-01T08:32:20.982Z,1908.00
2023-01-01T08:33:20.968Z,1964.00
2023-01-01T08:34:20.958Z,1968.00
2023-01-01T08:35:20.965Z,1992.00
2023-01-01T08:36:20.927Z,2032.00
2023-01-01T08:37:20.918Z,2040.00
2023-01-01T08:38:20.911Z,2016.00
2023-01-01T08:39:20.894Z,2016.00
2023-01-01T08:40:20.881Z,2032.00
2023-01-01T08:41:20.867Z,2036.00
2023-01-01T08:42:20.848Z,2052.00
2023-01-01T08:43:20.838Z,2084.00
2023-01-01T08:44:20.824Z,2156.00
2023-01-01T08:45:20.819Z,2148.00
2023-01-01T08:46:20.853Z,2256.00
2023-01-01T08:47:20.786Z,2296.00
2023-01-01T08:48:24.383Z,2348.00
2023-01-01T08:49:21.794Z,2472.00
2023-01-01T08:50:20.750Z,2564.00
2023-01-01T08:51:20.749Z,2628.00
2023-01-01T08:52:20.713Z,2728.00
2023-01-01T08:53:20.702Z,2796.00
2023-01-01T08:54:20.692Z,2856.00
2023-01-01T08:55:20.670Z,2872.00
2023-01-01T08:56:20.806Z,2852.00
2023-01-01T08:57:20.649Z,2784.00
2023-01-01T08:58:20.670Z,2772.00
2023-01-01T08:59:20.622Z,2588.00
2023-01-01T09:00:20.622Z,2612.00
2023-01-01T09:01:20.769Z,2644.00
2023-01-01T09:02:20.740Z,2636.00
2023-01-01T09:03:20.782Z,2708.00
2023-01-01T09:04:20.555Z,2784.00
2023-01-01T09:05:20.538Z,2896.00
2023-01-01T09:06:20.534Z,2960.00
2023-01-01T09:07:20.533Z,3032.00
2023-01-01T09:08:20.502Z,3216.00
2023-01-01T09:09:22.317Z,3240.00
2023-01-01T09:10:20.482Z,3380.00
2023-01-01T09:11:20.465Z,3392.00
2023-01-01T09:12:20.457Z,3372.00
2023-01-01T09:13:20.433Z,3376.00
2023-01-01T09:14:20.432Z,3432.00
2023-01-01T09:15:20.409Z,3500.00
2023-01-01T09:16:20.478Z,3512.00
2023-01-01T09:17:20.397Z,3536.00
2023-01-01T09:18:20.365Z,3644.00
2023-01-01T09:19:20.363Z,3648.00
2023-01-01T09:20:20.344Z,3672.00
2023-01-01T09:21:20.326Z,3640.00
2023-01-01T09:22:20.313Z,3632.00
2023-01-01T09:23:20.316Z,3660.00
2023-01-01T09:24:20.287Z,3668.00
2023-01-01T09:25:20.279Z,3660.00
2023-01-01T09:26:20.266Z,3576.00
2023-01-01T09:27:20.253Z,3500.00
2023-01-01T09:28:25.474Z,3512.00
2023-01-01T09:29:20.224Z,3548.00
2023-01-01T09:30:20.217Z,3512.00
2023-01-01T09:31:20.238Z,3536.00
2023-01-01T09:32:20.186Z,3436.00
2023-01-01T09:33:20.169Z,3412.00
2023-01-01T09:34:20.158Z,3340.00
2023-01-01T09:35:20.163Z,3316.00
2023-01-01T09:36:20.136Z,3312.00
2023-01-01T09:37:20.118Z,3328.00
2023-01-01T09:38:20.105Z,3340.00
2023-01-01T09:39:20.110Z,3320.00
2023-01-01T09:40:20.091Z,3300.00
2023-01-01T09:41:20.057Z,3360.00
2023-01-01T09:42:20.050Z,3400.00
2023-01-01T09:43:20.032Z,3412.00
2023-01-01T09:44:20.048Z,3424.00
2023-01-01T09:45:20.011Z,3468.00
2023-01-01T09:46:20.062Z,3504.00
2023-01-01T09:47:19.988Z,3488.00
2023-01-01T09:48:19.974Z,3504.00
2023-01-01T09:49:19.965Z,3532.00
2023-01-01T09:50:19.959Z,3536.00
2023-01-01T09:51:19.939Z,3552.00
2023-01-01T09:52:19.920Z,3628.00
2023-01-01T09:53:19.905Z,3644.00
2023-01-01T09:54:19.924Z,3716.00
2023-01-01T09:55:19.902Z,3716.00
2023-01-01T09:56:19.868Z,3780.00
2023-01-01T09:57:20.488Z,3856.00
2023-01-01T09:58:19.843Z,3916.00
2023-01-01T09:59:19.825Z,3968.00
2023-01-01T10:00:19.844Z,3952.00
2023-01-01T10:01:19.905Z,4004.00
2023-01-01T10:02:19.838Z,3996.00
2023-01-01T10:03:19.780Z,3996.00
2023-01-01T10:04:19.820Z,4036.00
2023-01-01T10:05:19.742Z,4052.00
2023-01-01T10:06:19.737Z,4056.00
2023-01-01T10:07:19.727Z,4080.00
2023-01-01T10:08:23.435Z,4072.00
2023-01-01T10:09:19.685Z,4060.00
2023-01-01T10:10:19.687Z,4024.00
2023-01-01T10:11:19.697Z,3984.00
2023-01-01T10:12:19.661Z,3960.00
2023-01-01T10:13:19.645Z,3940.00
2023-01-01T10:14:19.627Z,3952.00
2023-01-01T10:15:19.608Z,3976.00
2023-01-01T10:16:24.189Z,4008.00
2023-01-01T10:17:19.593Z,3980.00
2023-01-01T10:18:19.576Z,3944.00
2023-01-01T10:19:19.559Z,3972.00
2023-01-01T10:20:19.553Z,3932.00
2023-01-01T10:21:19.542Z,3980.00
2023-01-01T10:22:19.520Z,4020.00
2023-01-01T10:23:19.503Z,4044.00
2023-01-01T10:24:19.501Z,4064.00
2023-01-01T10:25:19.474Z,4112.00
2023-01-01T10:26:19.468Z,4268.00
2023-01-01T10:27:19.466Z,4296.00
2023-01-01T10:28:19.445Z,4340.00
2023-01-01T10:29:19.425Z,4288.00
2023-01-01T10:30:19.425Z,4424.00
2023-01-01T10:31:19.461Z,4472.00
2023-01-01T10:32:19.398Z,4468.00
2023-01-01T10:33:19.372Z,4444.00
2023-01-01T10:34:19.356Z,4440.00
2023-01-01T10:35:19.345Z,4440.00
2023-01-01T10:36:19.356Z,4428.00
2023-01-01T10:37:19.309Z,4456.00
2023-01-01T10:38:19.308Z,4528.00
2023-01-01T10:39:19.298Z,4552.00
2023-01-01T10:40:19.301Z,4668.00
2023-01-01T10:41:20.281Z,4732.00
2023-01-01T10:42:19.252Z,4684.00
2023-01-01T10:43:19.262Z,4716.00
2023-01-01T10:44:19.229Z,4800.00
2023-01-01T10:45:19.199Z,4876.00
2023-01-01T10:46:19.292Z,4980.00
2023-01-01T10:47:19.193Z,5048.00
2023-01-01T10:48:19.180Z,4928.00
2023-01-01T10:49:19.150Z,4900.00
2023-01-01T10:50:19.151Z,4892.00
2023-01-01T10:51:19.132Z,4880.00
2023-01-01T10:52:19.108Z,4856.00
2023-01-01T10:53:19.106Z,4840.00
2023-01-01T10:54:19.111Z,4884.00
2023-01-01T10:55:19.082Z,4928.00
2023-01-01T10:56:19.051Z,4992.00
2023-01-01T10:57:19.041Z,4976.00
2023-01-01T10:58:19.033Z,4968.00
2023-01-01T10:59:19.036Z,4944.00
2023-01-01T11:00:19.017Z,4932.00
2023-01-01T11:01:19.196Z,4976.00
2023-01-01T11:02:19.237Z,5016.00
2023-01-01T11:03:19.096Z,5120.00
2023-01-01T11:04:18.975Z,5200.00
2023-01-01T11:05:21.859Z,5192.00
2023-01-01T11:06:18.931Z,5352.00
2023-01-01T11:07:18.921Z,5484.00
2023-01-01T11:08:18.911Z,5100.00
2023-01-01T11:09:18.894Z,4996.00
2023-01-01T11:10:19.102Z,4884.00
2023-01-01T11:11:18.859Z,4860.00
2023-01-01T11:12:45.897Z,4888.00
2023-01-01T11:13:19.861Z,4984.00
2023-01-01T11:14:18.823Z,5104.00
2023-01-01T11:15:18.829Z,5084.00
2023-01-01T11:16:18.798Z,5316.00
2023-01-01T11:17:18.789Z,5668.00
2023-01-01T11:18:18.766Z,5508.00
2023-01-01T11:19:18.756Z,5352.00
2023-01-01T11:20:18.753Z,5148.00
2023-01-01T11:21:18.715Z,4888.00
2023-01-01T11:22:18.709Z,5180.00
2023-01-01T11:23:18.701Z,5312.00
2023-01-01T11:24:18.708Z,4964.00
2023-01-01T11:25:18.668Z,4992.00
2023-01-01T11:26:18.693Z,4980.00
2023-01-01T11:27:18.652Z,4960.00
2023-01-01T11:28:18.636Z,5060.00
2023-01-01T11:29:18.630Z,5180.00
2023-01-01T11:30:18.609Z,5256.00
2023-01-01T11:31:18.857Z,5436.00
2023-01-01T11:32:18.569Z,5524.00
2023-01-01T11:33:18.592Z,5560.00
2023-01-01T11:34:18.562Z,5484.00
2023-01-01T11:35:18.600Z,5560.00
2023-01-01T11:36:18.521Z,5692.00
2023-01-01T11:37:18.517Z,6056.00
2023-01-01T11:38:18.510Z,6368.00
2023-01-01T11:39:18.496Z,6516.00
2023-01-01T11:40:18.604Z,6272.00
2023-01-01T11:41:18.451Z,6260.00
2023-01-01T11:42:18.440Z,6312.00
2023-01-01T11:43:18.473Z,6632.00
2023-01-01T11:44:18.462Z,6328.00
2023-01-01T11:45:18.405Z,6824.00
2023-01-01T11:46:18.432Z,7584.00
2023-01-01T11:47:18.499Z,7920.00
2023-01-01T11:48:18.364Z,7828.00
2023-01-01T11:49:18.347Z,8400.00
2023-01-01T11:50:18.412Z,8628.00
2023-01-01T11:51:18.333Z,9488.00
2023-01-01T11:52:18.320Z,11428.00
2023-01-01T11:53:18.328Z,10428.00
2023-01-01T11:54:18.305Z,10892.00
2023-01-01T11:55:18.289Z,10884.00
2023-01-01T11:56:18.271Z,10956.00
2023-01-01T11:57:18.252Z,10376.00
2023-01-01T11:58:20.000Z,9892.00
2023-01-01T11:59:18.223Z,10800.00
2023-01-01T12:00:18.288Z,10644.00
2023-01-01T12:01:18.210Z,9724.00
2023-01-01T12:02:18.226Z,10276.00
2023-01-01T12:03:18.328Z,10256.00
2023-01-01T12:04:18.245Z,10620.00
2023-01-01T12:05:18.156Z,10428.00
2023-01-01T12:06:18.140Z,10220.00
2023-01-01T12:07:18.122Z,9304.00
2023-01-01T12:08:18.098Z,9152.00
2023-01-01T12:09:19.006Z,9484.00
2023-01-01T12:10:18.114Z,11172.00
2023-01-01T12:11:18.063Z,10940.00
2023-01-01T12:12:18.043Z,11600.00
2023-01-01T12:13:18.038Z,11748.00
2023-01-01T12:14:18.029Z,11748.00
2023-01-01T12:15:18.004Z,11200.00
2023-01-01T12:16:18.039Z,11060.00
2023-01-01T12:17:17.982Z,10344.00
2023-01-01T12:18:17.968Z,10888.00
2023-01-01T12:19:17.983Z,10340.00
2023-01-01T12:20:17.986Z,9716.00
2023-01-01T12:21:17.957Z,10152.00
2023-01-01T12:22:17.939Z,10152.00
2023-01-01T12:23:17.910Z,10712.00
2023-01-01T12:24:17.884Z,10236.00
2023-01-01T12:25:17.864Z,10172.00
2023-01-01T12:26:17.857Z,10476.00
2023-01-01T12:27:17.845Z,10744.00
2023-01-01T12:28:17.842Z,11024.00
2023-01-01T12:29:17.828Z,10572.00
2023-01-01T12:30:17.823Z,10788.00
2023-01-01T12:31:17.821Z,10928.00
2023-01-01T12:32:17.779Z,10964.00
2023-01-01T12:33:17.764Z,10980.00
2023-01-01T12:34:17.775Z,10676.00
2023-01-01T12:35:17.775Z,10000.00
2023-01-01T12:36:18.075Z,10664.00
2023-01-01T12:37:17.735Z,10484.00
2023-01-01T12:38:17.702Z,10872.00
2023-01-01T12:39:17.687Z,10488.00
2023-01-01T12:40:22.749Z,10104.00
2023-01-01T12:41:18.687Z,9752.00
2023-01-01T12:42:17.640Z,9012.00
2023-01-01T12:43:17.629Z,8560.00
2023-01-01T12:44:17.629Z,9572.00